Hauptseite
METAR-TAF:

METAR-TAF

Flughäfen :

Flughafen Tahiti

Tahiti, Französisch-Polynesien

Breite: 17-33S, Länge: 149-37W, Höhe: 2 m

Beobachtung

Neuester Wetterbericht von vor 34 Minuten, um 08:00 UTC
Wind 6 kt aus Ost
Temperatur 26°C
Luftfeuchtigkeit 74%
Luftdruck 1016 hPa
Sichtweite 10 km oder mehr
Aufgelockert bewölkt in der Höhe von 2000 ft
Durchbrochene Bewölkung in der Höhe von 5300 ft

METAR: NTAA 210800Z 08006KT 9999 SCT020 BKN053 26/21 Q1016 NOSIG

Zeit: 22:34 (08:34 UTC)

Prognose

Neuester Wetterbericht von vor 3 Stunden und 34 Minuten, um 05:00 UTC
Gültige Prognose vom 21 um 06 UTC bis 22 um 12 UTC
Wind 5 kt aus unterschiedlichen Richtungen
Sichtweite 10 km oder mehr
Leicht bewölkt in der Höhe von 2300 ft

TAF: NTAA 210500Z 2106/2212 VRB05KT 9999 FEW023

Wetterbeobachtungen und Prognosen von mehr als 4000 Flughäfen (METAR und TAF Bericht).

Die verfügbaren Stationen werden durch gelbe und rote Markierungen auf der Karte dargestellt.

Führen Sie die Maus auf sie, um den Namen der Station zu sehen.

Darauf klicken, um die Beobachtung von Wetterbeobachtungen und Prognosen zu sehen.

Um die Karte zu ändern : klicken Sie auf den grünen Tasten mit einem schwarzen Kreuz Zum Vergrößern, auf den grünen Button mit einem Gedankenstrich zu verkleinern, oder auf die grünen Pfeile für benachbarte Karten.


METAR-TAF: